createdAt,value
2018-04-27T00:02:07.028Z,5.90
2018-04-27T00:04:34.481Z,5.90
2018-04-27T00:07:01.938Z,5.90
2018-04-27T00:09:29.488Z,5.80
2018-04-27T00:12:00.003Z,5.70
2018-04-27T00:14:27.469Z,5.70
2018-04-27T00:16:54.939Z,5.70
2018-04-27T00:19:22.401Z,5.80
2018-04-27T00:21:49.873Z,5.80
2018-04-27T00:24:18.096Z,5.90
2018-04-27T00:26:45.646Z,5.90
2018-04-27T00:29:13.140Z,5.90
2018-04-27T00:31:40.700Z,5.80
2018-04-27T00:34:08.263Z,5.80
2018-04-27T00:36:35.716Z,5.60
2018-04-27T00:39:03.284Z,5.60
2018-04-27T00:41:31.562Z,5.30
2018-04-27T00:43:59.020Z,5.30
2018-04-27T00:46:26.491Z,5.40
2018-04-27T00:48:54.041Z,5.40
2018-04-27T00:51:21.508Z,5.30
2018-04-27T00:53:49.061Z,5.30
2018-04-27T00:56:16.530Z,5.20
2018-04-27T00:58:43.984Z,5.10
2018-04-27T01:01:11.450Z,5.10
2018-04-27T01:03:39.689Z,5.10
2018-04-27T01:06:07.164Z,5.10
2018-04-27T01:08:34.627Z,5.20
2018-04-27T01:11:02.080Z,5.20
2018-04-27T01:13:29.541Z,5.20
2018-04-27T01:15:57.002Z,5.10
2018-04-27T01:18:25.229Z,5.20
2018-04-27T01:20:52.727Z,5.10
2018-04-27T01:23:20.196Z,5.20
2018-04-27T01:25:47.654Z,5.10
2018-04-27T01:28:15.929Z,5.00
2018-04-27T01:30:43.489Z,4.90
2018-04-27T01:33:10.944Z,5.00
2018-04-27T01:35:39.222Z,5.00
2018-04-27T01:38:06.776Z,5.00
2018-04-27T01:40:35.064Z,4.90
2018-04-27T01:43:02.569Z,4.90
2018-04-27T01:45:30.073Z,4.80
2018-04-27T01:47:57.636Z,4.80
2018-04-27T01:50:25.193Z,4.80
2018-04-27T01:52:52.824Z,4.70
2018-04-27T01:55:21.215Z,4.60
2018-04-27T01:57:48.674Z,4.60
2018-04-27T02:00:16.133Z,4.50
2018-04-27T02:02:43.615Z,4.40
2018-04-27T02:05:11.832Z,4.30
2018-04-27T02:07:39.348Z,4.30
2018-04-27T02:10:07.577Z,4.30
2018-04-27T02:12:35.037Z,4.20
2018-04-27T02:15:02.548Z,4.30
2018-04-27T02:17:30.005Z,4.30
2018-04-27T02:19:57.554Z,4.40
2018-04-27T02:22:25.121Z,4.40
2018-04-27T02:24:53.413Z,4.30
2018-04-27T02:27:20.869Z,4.30
2018-04-27T02:29:48.329Z,4.20
2018-04-27T02:32:15.872Z,4.20
2018-04-27T02:34:43.332Z,4.20
2018-04-27T02:37:11.612Z,4.20
2018-04-27T02:39:39.170Z,4.20
2018-04-27T02:42:07.445Z,4.10
2018-04-27T02:44:35.015Z,4.10
2018-04-27T02:47:02.570Z,4.10
2018-04-27T02:49:30.801Z,4.20
2018-04-27T02:51:58.305Z,4.10
2018-04-27T02:54:25.788Z,4.20
2018-04-27T02:56:54.043Z,4.20
2018-04-27T02:59:21.513Z,4.20
2018-04-27T03:01:49.061Z,4.10
2018-04-27T03:04:16.616Z,4.00
2018-04-27T03:06:44.841Z,4.10
2018-04-27T03:09:12.361Z,4.10
2018-04-27T03:11:39.825Z,4.10
2018-04-27T03:14:07.281Z,4.10
2018-04-27T03:16:34.740Z,4.00
2018-04-27T03:19:02.192Z,4.00
2018-04-27T03:21:29.649Z,4.00
2018-04-27T03:23:57.217Z,4.00
2018-04-27T03:26:24.660Z,4.00
2018-04-27T03:28:52.885Z,4.10
2018-04-27T03:31:20.397Z,4.10
2018-04-27T03:33:47.962Z,4.10
2018-04-27T03:36:15.412Z,4.20
2018-04-27T03:38:43.692Z,4.20
2018-04-27T03:41:11.969Z,4.10
2018-04-27T03:43:39.529Z,4.10
2018-04-27T03:46:07.809Z,4.00
2018-04-27T03:48:35.369Z,4.00
2018-04-27T03:51:03.600Z,4.00
2018-04-27T03:53:31.101Z,3.90
2018-04-27T03:55:59.324Z,4.10
2018-04-27T03:58:26.780Z,4.00
2018-04-27T04:01:06.136Z,4.10
2018-04-27T04:03:45.516Z,4.20
2018-04-27T04:06:12.984Z,4.20
2018-04-27T04:08:41.244Z,4.20
2018-04-27T04:11:09.521Z,4.20
2018-04-27T04:13:37.089Z,4.20
2018-04-27T04:16:04.554Z,4.20
2018-04-27T04:18:32.008Z,4.20
2018-04-27T04:20:59.473Z,4.10
2018-04-27T04:23:26.925Z,4.10
2018-04-27T04:25:55.152Z,4.20
2018-04-27T04:28:22.610Z,4.20
2018-04-27T04:30:50.106Z,4.30
2018-04-27T04:33:18.385Z,4.30
2018-04-27T04:35:46.607Z,4.40
2018-04-27T04:38:14.150Z,4.40
2018-04-27T04:40:42.341Z,4.40
2018-04-27T04:43:09.853Z,4.40
2018-04-27T04:45:37.321Z,4.50
2018-04-27T04:48:04.853Z,4.60
2018-04-27T04:50:32.337Z,4.60
2018-04-27T04:52:59.792Z,4.90
2018-04-27T04:55:27.257Z,5.00
2018-04-27T04:57:54.804Z,5.20
2018-04-27T05:00:23.044Z,5.60
2018-04-27T05:02:50.564Z,5.60
2018-04-27T05:05:18.000Z,5.70
2018-04-27T05:07:46.276Z,6.10
2018-04-27T05:10:13.735Z,6.00
2018-04-27T05:12:41.292Z,6.20
2018-04-27T05:15:09.569Z,6.60
2018-04-27T05:17:37.028Z,6.50
2018-04-27T05:20:04.001Z,6.90
2018-04-27T05:22:33.164Z,7.60
2018-04-27T05:25:00.740Z,7.50
2018-04-27T05:27:28.192Z,7.90
2018-04-27T05:29:55.753Z,8.20
2018-04-27T05:32:23.216Z,8.40
2018-04-27T05:34:50.680Z,8.50
2018-04-27T05:37:18.233Z,8.50
2018-04-27T05:39:45.798Z,8.60
2018-04-27T05:42:13.252Z,8.70
2018-04-27T05:44:40.804Z,8.80
2018-04-27T05:47:08.364Z,8.90
2018-04-27T05:49:35.828Z,9.00
2018-04-27T05:52:03.286Z,9.10
2018-04-27T05:54:30.745Z,9.20
2018-04-27T05:56:58.300Z,9.40
2018-04-27T05:59:25.866Z,9.40
2018-04-27T06:01:53.430Z,9.50
2018-04-27T06:04:20.981Z,9.60
2018-04-27T06:06:48.541Z,9.80
2018-04-27T06:09:15.996Z,9.80
2018-04-27T06:11:43.451Z,9.90
2018-04-27T06:14:10.926Z,10.10
2018-04-27T06:16:38.389Z,10.20
2018-04-27T06:19:05.848Z,10.20
2018-04-27T06:21:33.381Z,10.30
2018-04-27T06:24:00.848Z,10.30
2018-04-27T06:26:28.306Z,10.40
2018-04-27T06:28:55.765Z,10.40
2018-04-27T06:31:23.324Z,10.50
2018-04-27T06:33:50.893Z,10.60
2018-04-27T06:36:18.365Z,10.80
2018-04-27T06:38:45.904Z,10.90
2018-04-27T06:41:13.471Z,11.00
2018-04-27T06:43:41.698Z,11.10
2018-04-27T06:46:09.204Z,11.10
2018-04-27T06:48:36.665Z,11.30
2018-04-27T06:51:04.137Z,11.30
2018-04-27T06:53:31.676Z,11.40
2018-04-27T06:55:59.133Z,11.60
2018-04-27T06:58:26.693Z,11.70
2018-04-27T07:00:54.261Z,11.70
2018-04-27T07:03:21.716Z,11.70
2018-04-27T07:05:49.171Z,11.70
2018-04-27T07:08:16.637Z,11.70
2018-04-27T07:10:44.193Z,11.90
2018-04-27T07:13:11.656Z,12.00
2018-04-27T07:15:39.212Z,12.10
2018-04-27T07:18:06.681Z,12.30
2018-04-27T07:20:34.133Z,12.50
2018-04-27T07:23:01.691Z,12.70
2018-04-27T07:25:29.161Z,12.90
2018-04-27T07:27:56.702Z,12.90
2018-04-27T07:30:24.268Z,13.10
2018-04-27T07:32:51.725Z,13.10
2018-04-27T07:35:19.181Z,13.20
2018-04-27T07:37:46.637Z,13.20
2018-04-27T07:40:14.097Z,13.20
2018-04-27T07:42:41.658Z,13.20
2018-04-27T07:45:09.230Z,13.30
2018-04-27T07:47:36.780Z,13.30
2018-04-27T07:50:04.237Z,13.40
2018-04-27T07:52:31.692Z,13.40
2018-04-27T07:54:59.257Z,13.60
2018-04-27T07:57:26.717Z,13.70
2018-04-27T07:59:54.171Z,13.80
2018-04-27T08:02:21.791Z,13.90
2018-04-27T08:04:49.188Z,13.80
2018-04-27T08:07:16.663Z,13.80
2018-04-27T08:09:44.105Z,14.00
2018-04-27T08:12:12.376Z,14.20
2018-04-27T08:14:39.833Z,14.20
2018-04-27T08:17:07.400Z,14.30
2018-04-27T08:19:34.964Z,14.40
2018-04-27T08:22:02.528Z,14.50
2018-04-27T08:24:30.138Z,14.70
2018-04-27T08:26:57.645Z,14.80
2018-04-27T08:29:25.914Z,14.80
2018-04-27T08:31:53.476Z,14.80
2018-04-27T08:34:21.037Z,14.80
2018-04-27T08:36:48.501Z,14.90
2018-04-27T08:39:16.057Z,14.90
2018-04-27T08:41:43.518Z,15.00
2018-04-27T08:44:11.085Z,15.30
2018-04-27T08:46:38.634Z,15.30
2018-04-27T08:49:06.093Z,15.50
2018-04-27T08:51:33.653Z,15.50
2018-04-27T08:54:01.108Z,15.80
2018-04-27T08:56:28.568Z,15.90
2018-04-27T08:58:56.042Z,16.00
2018-04-27T09:01:23.592Z,16.00
2018-04-27T09:03:51.060Z,16.00
2018-04-27T09:06:18.559Z,16.10
2018-04-27T09:08:46.751Z,16.70
2018-04-27T09:11:14.239Z,16.70
2018-04-27T09:13:41.697Z,16.90
2018-04-27T09:16:09.257Z,16.80
2018-04-27T09:18:36.816Z,16.80
2018-04-27T09:21:04.277Z,16.60
2018-04-27T09:23:31.901Z,16.60
2018-04-27T09:25:59.348Z,16.70
2018-04-27T09:28:26.918Z,16.40
2018-04-27T09:30:54.413Z,16.30
2018-04-27T09:33:21.876Z,16.40
2018-04-27T09:35:49.341Z,16.50
2018-04-27T09:38:16.892Z,16.50
2018-04-27T09:40:45.169Z,16.70
2018-04-27T09:43:12.728Z,16.70
2018-04-27T09:45:40.254Z,16.70
2018-04-27T09:48:07.656Z,16.70
2018-04-27T09:50:35.205Z,16.80
2018-04-27T09:53:02.664Z,16.90
2018-04-27T09:55:30.220Z,16.80
2018-04-27T09:57:57.678Z,16.90
2018-04-27T10:00:25.245Z,17.10
2018-04-27T10:02:52.705Z,17.30
2018-04-27T10:05:20.321Z,17.30
2018-04-27T10:07:47.768Z,17.20
2018-04-27T10:10:15.279Z,17.20
2018-04-27T10:12:42.737Z,17.10
2018-04-27T10:15:10.292Z,17.10
2018-04-27T10:17:37.852Z,17.30
2018-04-27T10:20:05.417Z,17.40
2018-04-27T10:22:32.876Z,17.60
2018-04-27T10:25:00.404Z,17.80
2018-04-27T10:27:27.888Z,17.90
2018-04-27T10:29:55.452Z,17.90
2018-04-27T10:32:23.012Z,17.90
2018-04-27T10:34:50.468Z,18.10
2018-04-27T10:37:18.029Z,18.20
2018-04-27T10:39:45.593Z,18.30
2018-04-27T10:42:13.151Z,18.20
2018-04-27T10:44:40.712Z,18.30
2018-04-27T10:47:08.269Z,18.40
2018-04-27T10:49:35.834Z,18.50
2018-04-27T10:52:03.400Z,18.60
2018-04-27T10:54:30.865Z,18.60
2018-04-27T10:56:59.092Z,18.70
2018-04-27T10:59:26.584Z,18.60
2018-04-27T11:01:54.049Z,18.50
2018-04-27T11:04:21.544Z,18.60
2018-04-27T11:06:49.760Z,18.70
2018-04-27T11:09:17.242Z,18.70
2018-04-27T11:11:44.718Z,18.80
2018-04-27T11:14:12.165Z,18.80
2018-04-27T11:16:39.628Z,18.90
2018-04-27T11:19:07.172Z,19.10
2018-04-27T11:21:34.628Z,18.90
2018-04-27T11:24:02.193Z,18.90
2018-04-27T11:26:29.753Z,19.00
2018-04-27T11:28:57.309Z,19.00
2018-04-27T11:31:24.872Z,18.90
2018-04-27T11:33:52.332Z,18.80
2018-04-27T11:36:19.801Z,19.00
2018-04-27T11:38:47.261Z,19.10
2018-04-27T11:41:14.731Z,19.10
2018-04-27T11:43:42.269Z,19.30
2018-04-27T11:46:09.724Z,19.30
2018-04-27T11:48:37.184Z,19.50
2018-04-27T11:51:04.645Z,19.50
2018-04-27T11:53:32.196Z,19.60
2018-04-27T11:55:59.661Z,19.70
2018-04-27T11:58:27.229Z,19.80
2018-04-27T12:00:55.461Z,20.20
2018-04-27T12:03:22.953Z,20.20
2018-04-27T12:05:50.404Z,20.40
2018-04-27T12:08:17.865Z,20.50
2018-04-27T12:10:45.514Z,20.60
2018-04-27T12:13:12.888Z,20.60
2018-04-27T12:15:41.228Z,20.30
2018-04-27T12:18:08.685Z,20.30
2018-04-27T12:20:36.146Z,20.30
2018-04-27T12:23:03.600Z,20.30
2018-04-27T12:25:31.072Z,20.20
2018-04-27T12:27:58.553Z,20.20
2018-04-27T12:30:26.013Z,20.20
2018-04-27T12:32:53.582Z,20.30
2018-04-27T12:35:21.809Z,20.50
2018-04-27T12:37:49.316Z,20.50
2018-04-27T12:40:16.869Z,20.40
2018-04-27T12:42:44.428Z,20.60
2018-04-27T12:45:12.005Z,20.80
2018-04-27T12:47:39.520Z,21.00
2018-04-27T12:50:06.976Z,21.10
2018-04-27T12:52:34.465Z,21.20
2018-04-27T12:55:02.030Z,21.10
2018-04-27T12:57:29.485Z,20.90
2018-04-27T12:59:57.002Z,21.00
2018-04-27T13:02:24.500Z,21.00
2018-04-27T13:04:51.960Z,20.90
2018-04-27T13:07:19.525Z,20.90
2018-04-27T13:09:47.082Z,21.00
2018-04-27T13:12:14.540Z,21.00
2018-04-27T13:14:42.107Z,21.10
2018-04-27T13:17:09.560Z,21.10
2018-04-27T13:19:37.116Z,21.10
2018-04-27T13:22:04.677Z,21.20
2018-04-27T13:24:32.141Z,21.30
2018-04-27T13:26:59.696Z,21.20
2018-04-27T13:29:27.256Z,21.20
2018-04-27T13:31:54.821Z,21.10
2018-04-27T13:34:22.449Z,21.10
2018-04-27T13:36:49.941Z,21.20
2018-04-27T13:39:17.400Z,21.20
2018-04-27T13:41:44.858Z,21.30
2018-04-27T13:44:12.417Z,21.30
2018-04-27T13:46:39.972Z,21.30
2018-04-27T13:49:07.540Z,21.20
2018-04-27T13:51:35.005Z,21.20
2018-04-27T13:54:02.559Z,21.20
2018-04-27T13:56:30.122Z,21.00
2018-04-27T13:58:57.585Z,21.10
2018-04-27T14:01:25.045Z,21.10
2018-04-27T14:03:52.501Z,21.20
2018-04-27T14:06:19.957Z,21.20
2018-04-27T14:08:47.412Z,21.40
2018-04-27T14:11:15.699Z,21.60
2018-04-27T14:13:43.110Z,21.60
2018-04-27T14:16:10.596Z,21.70
2018-04-27T14:18:38.166Z,21.70
2018-04-27T14:21:05.625Z,21.70
2018-04-27T14:23:33.850Z,21.60
2018-04-27T14:26:01.358Z,21.60
2018-04-27T14:28:28.913Z,21.60
2018-04-27T14:30:56.375Z,21.50
2018-04-27T14:33:23.845Z,21.50
2018-04-27T14:35:51.450Z,21.40
2018-04-27T14:38:18.901Z,21.50
2018-04-27T14:40:46.358Z,21.50
2018-04-27T14:43:13.818Z,21.50
2018-04-27T14:45:41.268Z,21.40
2018-04-27T14:48:08.734Z,21.20
2018-04-27T14:50:36.240Z,21.20
2018-04-27T14:53:03.692Z,21.40
2018-04-27T14:55:31.265Z,21.30
2018-04-27T14:57:58.728Z,21.30
2018-04-27T15:00:26.278Z,21.20
2018-04-27T15:02:53.732Z,21.20
2018-04-27T15:05:21.364Z,21.10
2018-04-27T15:07:49.530Z,21.00
2018-04-27T15:10:16.989Z,21.00
2018-04-27T15:12:44.485Z,21.00
2018-04-27T15:15:11.948Z,21.10
2018-04-27T15:17:39.404Z,21.10
2018-04-27T15:20:06.923Z,21.00
2018-04-27T15:22:34.381Z,21.00
2018-04-27T15:25:01.837Z,21.00
2018-04-27T15:27:29.335Z,21.00
2018-04-27T15:29:56.796Z,21.10
2018-04-27T15:32:24.357Z,21.00
2018-04-27T15:34:51.916Z,20.90
2018-04-27T15:37:19.481Z,20.80
2018-04-27T15:39:46.941Z,20.80
2018-04-27T15:42:14.397Z,20.70
2018-04-27T15:44:41.857Z,20.60
2018-04-27T15:47:09.318Z,20.60
2018-04-27T15:49:36.868Z,20.60
2018-04-27T15:52:04.451Z,20.50
2018-04-27T15:54:31.990Z,20.50
2018-04-27T15:56:59.454Z,20.50
2018-04-27T15:59:27.733Z,20.70
2018-04-27T16:01:55.192Z,20.70
2018-04-27T16:04:22.658Z,20.80
2018-04-27T16:06:50.197Z,20.90
2018-04-27T16:09:17.790Z,21.00
2018-04-27T16:11:45.228Z,21.10
2018-04-27T16:14:12.681Z,21.10
2018-04-27T16:16:40.245Z,21.10
2018-04-27T16:19:07.705Z,21.10
2018-04-27T16:21:35.278Z,21.10
2018-04-27T16:24:03.740Z,21.20
2018-04-27T16:26:31.204Z,21.20
2018-04-27T16:28:58.810Z,21.30
2018-04-27T16:31:26.316Z,21.30
2018-04-27T16:33:54.544Z,21.40
2018-04-27T16:36:22.060Z,21.30
2018-04-27T16:38:49.528Z,21.40
2018-04-27T16:41:17.091Z,21.30
2018-04-27T16:43:44.543Z,21.30
2018-04-27T16:46:12.017Z,21.30
2018-04-27T16:48:40.269Z,21.40
2018-04-27T16:51:07.736Z,21.40
2018-04-27T16:53:35.287Z,21.40
2018-04-27T16:56:02.839Z,21.40
2018-04-27T16:58:30.300Z,21.30
2018-04-27T17:00:57.763Z,21.30
2018-04-27T17:03:25.234Z,21.20
2018-04-27T17:05:52.699Z,21.10
2018-04-27T17:08:20.920Z,21.00
2018-04-27T17:10:48.412Z,21.00
2018-04-27T17:13:15.876Z,20.90
2018-04-27T17:15:43.333Z,20.80
2018-04-27T17:18:10.792Z,20.80
2018-04-27T17:20:38.304Z,20.70
2018-04-27T17:23:05.769Z,20.60
2018-04-27T17:25:33.224Z,20.60
2018-04-27T17:28:00.720Z,20.50
2018-04-27T17:30:28.176Z,20.40
2018-04-27T17:32:55.745Z,20.30
2018-04-27T17:35:24.042Z,20.10
2018-04-27T17:37:51.640Z,20.10
2018-04-27T17:40:19.178Z,20.00
2018-04-27T17:42:46.556Z,19.80
2018-04-27T17:45:14.055Z,19.70
2018-04-27T17:47:41.524Z,19.60
2018-04-27T17:50:09.081Z,19.50
2018-04-27T17:52:36.633Z,19.40
2018-04-27T17:55:04.089Z,19.30
2018-04-27T17:57:31.548Z,19.10
2018-04-27T17:59:59.011Z,19.00
2018-04-27T18:02:26.481Z,18.90
2018-04-27T18:04:54.716Z,18.60
2018-04-27T18:07:22.181Z,18.60
2018-04-27T18:09:49.655Z,18.60
2018-04-27T18:12:17.204Z,18.50
2018-04-27T18:14:44.785Z,18.40
2018-04-27T18:17:13.012Z,18.30
2018-04-27T18:19:40.517Z,18.30
2018-04-27T18:22:08.081Z,18.20
2018-04-27T18:24:35.542Z,18.10
2018-04-27T18:27:03.101Z,18.00
2018-04-27T18:29:30.658Z,17.90
2018-04-27T18:31:58.120Z,17.70
2018-04-27T18:34:25.681Z,17.70
2018-04-27T18:36:53.170Z,17.60
2018-04-27T18:39:20.696Z,17.60
2018-04-27T18:41:48.170Z,17.50
2018-04-27T18:44:16.409Z,17.40
2018-04-27T18:46:43.945Z,17.40
2018-04-27T18:49:11.417Z,17.40
2018-04-27T18:51:38.896Z,17.30
2018-04-27T18:54:06.469Z,17.30
2018-04-27T18:56:33.929Z,17.30
2018-04-27T18:59:01.486Z,17.20
2018-04-27T19:01:29.757Z,17.20
2018-04-27T19:03:57.220Z,17.10
2018-04-27T19:06:25.495Z,17.10
2018-04-27T19:08:53.112Z,17.10
2018-04-27T19:11:20.517Z,17.00
2018-04-27T19:13:47.977Z,16.90
2018-04-27T19:16:15.529Z,16.90
2018-04-27T19:18:43.909Z,16.70
2018-04-27T19:21:12.392Z,16.60
2018-04-27T19:23:39.855Z,16.50
2018-04-27T19:26:08.009Z,16.40
2018-04-27T19:28:35.580Z,16.40
2018-04-27T19:31:03.965Z,16.40
2018-04-27T19:33:32.349Z,16.30
2018-04-27T19:36:00.586Z,16.30
2018-04-27T19:38:28.048Z,16.20
2018-04-27T19:40:55.512Z,16.20
2018-04-27T19:43:22.995Z,16.10
2018-04-27T19:45:50.456Z,16.00
2018-04-27T19:48:18.017Z,15.90
2018-04-27T19:50:45.571Z,15.80
2018-04-27T19:53:13.040Z,15.70
2018-04-27T19:55:40.499Z,15.60
2018-04-27T19:58:07.968Z,15.60
2018-04-27T20:00:37.149Z,15.40
2018-04-27T20:03:05.377Z,15.40
2018-04-27T20:05:35.669Z,15.40
2018-04-27T20:08:09.797Z,15.40
2018-04-27T20:10:39.595Z,15.30
2018-04-27T20:13:07.049Z,15.30
2018-04-27T20:15:46.114Z,15.30
2018-04-27T20:18:16.062Z,15.30
2018-04-27T20:20:44.480Z,15.20
2018-04-27T20:23:13.398Z,15.10
2018-04-27T20:25:42.788Z,15.10
2018-04-27T20:28:11.029Z,15.00
2018-04-27T20:30:41.216Z,15.00
2018-04-27T20:33:09.369Z,14.90
2018-04-27T20:35:36.868Z,14.90
2018-04-27T20:38:07.036Z,14.90
2018-04-27T20:40:35.265Z,14.80
2018-04-27T20:43:05.507Z,14.80
2018-04-27T20:45:33.066Z,14.80
2018-04-27T20:48:00.531Z,14.80
2018-04-27T20:50:27.989Z,14.70
2018-04-27T20:52:58.309Z,14.60
2018-04-27T20:55:25.772Z,14.60
2018-04-27T20:57:54.025Z,14.60
2018-04-27T21:00:24.472Z,14.60
2018-04-27T21:02:51.928Z,14.60
2018-04-27T21:05:20.288Z,14.60
2018-04-27T21:07:47.760Z,14.60
2018-04-27T21:10:15.224Z,14.60
2018-04-27T21:12:42.777Z,14.60
2018-04-27T21:15:12.821Z,14.60
2018-04-27T21:17:44.764Z,14.50
2018-04-27T21:20:12.237Z,14.40
2018-04-27T21:22:39.700Z,14.40
2018-04-27T21:25:07.952Z,14.30
2018-04-27T21:27:37.365Z,14.30
2018-04-27T21:30:04.931Z,14.30
2018-04-27T21:32:32.508Z,14.20
2018-04-27T21:35:00.766Z,14.20
2018-04-27T21:37:28.321Z,14.20
2018-04-27T21:39:55.878Z,14.20
2018-04-27T21:42:31.542Z,14.20
2018-04-27T21:44:58.996Z,14.10
2018-04-27T21:47:31.873Z,14.10
2018-04-27T21:50:00.737Z,14.10
2018-04-27T21:52:32.825Z,14.10
2018-04-27T21:55:00.288Z,14.10
2018-04-27T21:57:33.273Z,14.10
2018-04-27T22:00:14.518Z,14.10
2018-04-27T22:02:51.769Z,14.10
2018-04-27T22:08:42.184Z,14.00
2018-04-27T22:11:11.214Z,13.90
2018-04-27T22:13:38.723Z,13.90
2018-04-27T22:16:14.777Z,13.90
2018-04-27T22:18:42.333Z,13.80
2018-04-27T22:21:09.896Z,13.80
2018-04-27T22:23:38.975Z,13.80
2018-04-27T22:26:07.173Z,13.80
2018-04-27T22:28:36.055Z,13.70
2018-04-27T22:31:03.523Z,13.70
2018-04-27T22:33:49.665Z,13.70
2018-04-27T22:36:46.569Z,13.70
2018-04-27T22:39:18.639Z,13.60
2018-04-27T22:42:07.912Z,13.60
2018-04-27T22:47:33.321Z,13.50
2018-04-27T22:50:02.560Z,13.50
2018-04-27T22:52:40.233Z,13.50
2018-04-27T22:55:09.532Z,13.40
2018-04-27T22:57:53.477Z,13.40
2018-04-27T23:00:20.928Z,13.40
2018-04-27T23:02:51.232Z,13.40
2018-04-27T23:05:32.602Z,13.40
2018-04-27T23:08:15.044Z,13.40
2018-04-27T23:10:48.336Z,13.40
2018-04-27T23:16:11.019Z,13.30
2018-04-27T23:18:39.196Z,13.30
2018-04-27T23:21:06.667Z,13.20
2018-04-27T23:23:34.894Z,13.20
2018-04-27T23:26:02.381Z,13.20
2018-04-27T23:28:29.841Z,13.20
2018-04-27T23:30:58.148Z,13.20
2018-04-27T23:33:26.392Z,13.20
2018-04-27T23:35:54.652Z,13.10
2018-04-27T23:38:22.945Z,13.20
2018-04-27T23:40:53.196Z,13.20
2018-04-27T23:43:22.361Z,13.30
2018-04-27T23:45:49.929Z,13.20
2018-04-27T23:48:17.485Z,13.30
2018-04-27T23:50:59.896Z,13.30
2018-04-27T23:53:28.400Z,13.30
2018-04-27T23:55:56.633Z,13.20
2018-04-27T23:58:26.586Z,13.20
